Terminal Aerodrome Forecast
Issued by NWS Jackson, KY

Home | Current Version | Previous Version | Text Only | Print | Product List | Glossary On
Versions: 1 2 3 4 5 6 7 8 9 10 11 12
000
FTUS43 KJKL 141726
TAFLOZ
TAF
KLOZ 141726Z 1418/1518 VRB03KT P6SM FEW250
     FM150200 VRB03KT P6SM BKN250
     FM150900 VRB03KT P6SM -SHSN OVC040
     FM151300 18006KT P6SM OVC050
     FM151600 19010KT P6SM BKN080=

USA.gov is the U.S. government's official web portal to all federal, state and local government web resources and services.